createdAt,value
2022-09-17T00:00:48.000Z,13.38
2022-09-17T00:03:17.623Z,12.85
2022-09-17T00:08:14.631Z,11.27
2022-09-17T00:10:44.321Z,11.70
2022-09-17T00:13:12.266Z,12.73
2022-09-17T00:15:43.733Z,11.95
2022-09-17T00:18:11.432Z,11.90
2022-09-17T00:20:42.204Z,13.00
2022-09-17T00:23:10.006Z,11.52
2022-09-17T00:25:38.431Z,10.73
2022-09-17T00:28:05.885Z,11.95
2022-09-17T00:30:33.762Z,11.60
2022-09-17T00:33:01.142Z,13.30
2022-09-17T00:35:28.731Z,8.77
2022-09-17T00:37:57.559Z,10.27
2022-09-17T00:40:24.930Z,10.60
2022-09-17T00:42:52.348Z,9.82
2022-09-17T00:45:20.108Z,8.45
2022-09-17T00:47:51.455Z,9.27
2022-09-17T00:50:23.254Z,13.15
2022-09-17T00:52:54.026Z,11.55
2022-09-17T00:55:27.117Z,11.43
2022-09-17T00:57:58.251Z,11.15
2022-09-17T01:00:26.227Z,10.65
2022-09-17T01:02:54.923Z,12.00
2022-09-17T01:05:29.657Z,11.07
2022-09-17T01:08:09.545Z,9.57
2022-09-17T01:11:00.499Z,9.00
2022-09-17T01:13:40.302Z,9.48
2022-09-17T01:16:17.650Z,11.77
2022-09-17T01:18:57.393Z,9.95
2022-09-17T01:21:59.512Z,10.90
2022-09-17T01:25:06.799Z,9.57
2022-09-17T01:28:07.043Z,12.38
2022-09-17T01:30:44.023Z,9.60
2022-09-17T01:33:18.958Z,10.10
2022-09-17T01:35:54.440Z,9.82
2022-09-17T01:38:28.004Z,11.27
2022-09-17T01:41:03.989Z,10.50
2022-09-17T01:43:41.351Z,11.23
2022-09-17T01:46:17.283Z,11.85
2022-09-17T01:48:47.762Z,17.70
2022-09-17T01:51:19.471Z,14.50
2022-09-17T01:53:53.587Z,14.90
2022-09-17T01:56:27.016Z,12.32
2022-09-17T01:59:01.295Z,9.73
2022-09-17T02:01:33.878Z,12.02
2022-09-17T02:04:05.184Z,10.90
2022-09-17T02:06:36.611Z,12.52
2022-09-17T02:09:07.966Z,13.63
2022-09-17T02:11:37.463Z,8.65
2022-09-17T02:14:08.911Z,11.18
2022-09-17T02:16:43.707Z,9.73
2022-09-17T02:19:15.539Z,11.25
2022-09-17T02:21:48.927Z,10.00
2022-09-17T02:24:23.455Z,8.63
2022-09-17T02:26:59.736Z,10.07
2022-09-17T02:29:32.640Z,10.30
2022-09-17T02:32:01.838Z,9.75
2022-09-17T02:34:29.753Z,10.25
2022-09-17T02:36:58.688Z,11.70
2022-09-17T02:39:27.155Z,8.82
2022-09-17T02:42:02.256Z,10.65
2022-09-17T02:44:38.292Z,10.20
2022-09-17T02:47:23.681Z,8.80
2022-09-17T02:50:06.716Z,8.80
2022-09-17T02:52:49.239Z,9.95
2022-09-17T02:55:21.577Z,10.95
2022-09-17T02:57:58.785Z,9.30
2022-09-17T03:00:26.789Z,11.75
2022-09-17T03:03:00.736Z,8.77
2022-09-17T03:05:30.035Z,9.65
2022-09-17T03:07:59.351Z,11.80
2022-09-17T03:10:26.872Z,12.68
2022-09-17T03:12:54.780Z,8.85
2022-09-17T03:15:22.221Z,10.20
2022-09-17T03:17:53.250Z,10.18
2022-09-17T03:20:25.754Z,7.85
2022-09-17T03:22:53.142Z,8.60
2022-09-17T03:25:20.496Z,8.05
2022-09-17T03:27:47.885Z,8.75
2022-09-17T03:30:15.899Z,7.95
2022-09-17T03:32:43.265Z,11.43
2022-09-17T03:35:11.075Z,9.02
2022-09-17T03:37:39.889Z,7.70
2022-09-17T03:40:08.468Z,6.50
2022-09-17T03:42:35.868Z,7.95
2022-09-17T03:45:03.301Z,7.40
2022-09-17T03:47:30.818Z,14.45
2022-09-17T03:49:58.265Z,10.18
2022-09-17T03:52:25.737Z,12.45
2022-09-17T03:54:54.727Z,11.43
2022-09-17T03:57:22.106Z,9.55
2022-09-17T03:59:49.702Z,7.72
2022-09-17T04:02:17.351Z,9.23
2022-09-17T04:04:44.855Z,11.55
2022-09-17T04:07:12.192Z,10.15
2022-09-17T04:09:39.626Z,17.05
2022-09-17T04:12:08.609Z,13.10
2022-09-17T04:14:35.957Z,12.50
2022-09-17T04:17:03.525Z,11.68
2022-09-17T04:19:30.924Z,9.65
2022-09-17T04:21:58.295Z,9.80
2022-09-17T04:24:25.690Z,11.43
2022-09-17T04:26:53.063Z,11.13
2022-09-17T04:29:22.002Z,12.43
2022-09-17T04:31:49.365Z,12.73
2022-09-17T04:34:16.753Z,17.20
2022-09-17T04:36:44.094Z,10.80
2022-09-17T04:39:11.560Z,12.90
2022-09-17T04:41:38.940Z,11.77
2022-09-17T04:44:06.794Z,12.65
2022-09-17T04:46:35.706Z,10.88
2022-09-17T04:49:03.135Z,13.20
2022-09-17T04:51:30.632Z,11.13
2022-09-17T04:53:58.051Z,11.80
2022-09-17T04:56:25.442Z,12.20
2022-09-17T04:58:52.801Z,10.70
2022-09-17T05:01:20.272Z,12.43
2022-09-17T05:03:49.152Z,13.18
2022-09-17T05:06:16.541Z,13.67
2022-09-17T05:08:43.891Z,13.70
2022-09-17T05:11:11.303Z,11.40
2022-09-17T05:13:38.706Z,12.50
2022-09-17T05:16:06.370Z,10.88
2022-09-17T05:18:33.859Z,15.75
2022-09-17T05:21:02.687Z,13.55
2022-09-17T05:23:30.094Z,14.73
2022-09-17T05:25:58.969Z,10.63
2022-09-17T05:28:26.816Z,8.93
2022-09-17T05:30:54.283Z,10.23
2022-09-17T05:33:21.764Z,10.80
2022-09-17T05:35:49.299Z,10.90
2022-09-17T05:38:18.200Z,9.57
2022-09-17T05:40:46.034Z,14.67
2022-09-17T05:43:16.466Z,15.13
2022-09-17T05:45:44.245Z,11.52
2022-09-17T05:48:13.665Z,9.73
2022-09-17T05:50:41.313Z,14.40
2022-09-17T05:53:11.484Z,10.43
2022-09-17T05:55:40.815Z,12.27
2022-09-17T05:58:11.950Z,14.60
2022-09-17T06:00:39.625Z,10.23
2022-09-17T06:03:07.381Z,11.35
2022-09-17T06:05:34.862Z,7.90
2022-09-17T06:08:02.695Z,11.02
2022-09-17T06:10:30.065Z,14.52
2022-09-17T06:12:59.935Z,13.27
2022-09-17T06:17:55.229Z,12.13
2022-09-17T06:20:23.174Z,14.45
2022-09-17T06:22:56.426Z,12.88
2022-09-17T06:25:23.948Z,13.07
2022-09-17T06:27:51.312Z,11.23
2022-09-17T06:30:20.268Z,11.75
2022-09-17T06:32:47.744Z,12.25
2022-09-17T06:35:15.252Z,11.98
2022-09-17T06:37:42.702Z,8.82
2022-09-17T06:40:10.868Z,12.77
2022-09-17T06:42:38.388Z,14.65
2022-09-17T06:45:09.438Z,13.52
2022-09-17T06:47:39.967Z,10.95
2022-09-17T06:50:08.352Z,12.27
2022-09-17T06:52:35.827Z,12.48
2022-09-17T06:55:03.311Z,11.27
2022-09-17T06:57:30.675Z,9.45
2022-09-17T06:59:58.052Z,13.02
2022-09-17T07:02:25.498Z,10.32
2022-09-17T07:04:54.411Z,9.85
2022-09-17T07:07:21.956Z,9.03
2022-09-17T07:09:49.350Z,11.38
2022-09-17T07:12:16.687Z,9.35
2022-09-17T07:14:44.039Z,12.15
2022-09-17T07:17:11.710Z,10.55
2022-09-17T07:19:39.069Z,11.00
2022-09-17T07:22:08.395Z,9.40
2022-09-17T07:24:35.753Z,10.82
2022-09-17T07:27:03.180Z,10.95
2022-09-17T07:29:30.605Z,9.35
2022-09-17T07:31:58.185Z,11.27
2022-09-17T07:34:25.583Z,12.15
2022-09-17T07:36:52.915Z,11.63
2022-09-17T07:39:21.699Z,16.67
2022-09-17T07:41:49.167Z,12.88
2022-09-17T07:44:16.495Z,9.85
2022-09-17T07:46:43.923Z,11.55
2022-09-17T07:49:11.302Z,10.25
2022-09-17T07:51:40.496Z,10.27
2022-09-17T07:54:08.239Z,11.87
2022-09-17T07:56:37.036Z,11.43
2022-09-17T07:59:04.695Z,10.75
2022-09-17T08:01:33.327Z,9.70
2022-09-17T08:04:00.988Z,8.52
2022-09-17T08:06:28.675Z,8.35
2022-09-17T08:08:56.826Z,7.95
2022-09-17T08:11:54.651Z,7.50
2022-09-17T08:14:15.708Z,8.05
2022-09-17T08:19:10.034Z,9.15
2022-09-17T08:21:37.425Z,8.95
2022-09-17T08:24:05.203Z,6.22
2022-09-17T08:26:32.586Z,9.38
2022-09-17T08:29:00.095Z,11.85
2022-09-17T08:31:29.198Z,7.53
2022-09-17T08:33:56.900Z,6.72
2022-09-17T08:36:24.563Z,6.82
2022-09-17T08:38:53.496Z,7.60
2022-09-17T08:41:27.185Z,9.82
2022-09-17T08:44:11.341Z,8.95
2022-09-17T08:46:46.272Z,8.73
2022-09-17T08:49:24.219Z,6.57
2022-09-17T08:52:06.995Z,7.18
2022-09-17T08:54:42.451Z,7.82
2022-09-17T08:57:18.940Z,7.13
2022-09-17T08:59:51.141Z,7.70
2022-09-17T09:02:29.895Z,9.98
2022-09-17T09:05:08.699Z,6.73
2022-09-17T09:07:40.476Z,7.82
2022-09-17T09:10:15.652Z,8.63
2022-09-17T09:12:44.739Z,6.75
2022-09-17T09:15:25.497Z,8.23
2022-09-17T09:17:54.876Z,7.03
2022-09-17T09:20:29.041Z,7.55
2022-09-17T09:23:00.099Z,8.95
2022-09-17T09:25:33.070Z,7.45
2022-09-17T09:28:15.426Z,7.13
2022-09-17T09:30:56.698Z,10.32
2022-09-17T09:33:30.971Z,10.18
2022-09-17T09:35:59.395Z,9.35
2022-09-17T09:38:33.468Z,9.70
2022-09-17T09:41:09.474Z,8.10
2022-09-17T09:44:02.842Z,8.10
2022-09-17T09:46:56.216Z,9.68
2022-09-17T09:49:43.902Z,9.25
2022-09-17T09:52:28.684Z,9.45
2022-09-17T09:55:15.372Z,10.98
2022-09-17T09:57:46.869Z,10.00
2022-09-17T10:00:26.440Z,8.55
2022-09-17T10:02:58.801Z,12.48
2022-09-17T10:05:27.988Z,9.77
2022-09-17T10:07:55.412Z,9.98
2022-09-17T10:10:22.820Z,10.38
2022-09-17T10:13:04.987Z,11.10
2022-09-17T10:15:32.383Z,11.00
2022-09-17T10:18:13.016Z,11.63
2022-09-17T10:20:55.356Z,10.50
2022-09-17T10:23:24.125Z,9.13
2022-09-17T10:25:52.073Z,9.60
2022-09-17T10:28:31.243Z,14.70
2022-09-17T10:31:03.168Z,12.90
2022-09-17T10:33:34.300Z,11.93
2022-09-17T10:36:05.519Z,9.98
2022-09-17T10:38:36.453Z,12.73
2022-09-17T10:41:25.146Z,15.23
2022-09-17T10:43:52.692Z,10.70
2022-09-17T10:46:27.846Z,10.52
2022-09-17T10:49:08.458Z,10.38
2022-09-17T10:51:38.191Z,9.15
2022-09-17T10:56:54.670Z,13.05
2022-09-17T10:59:38.418Z,17.98
2022-09-17T11:02:25.903Z,15.70
2022-09-17T11:05:02.735Z,19.15
2022-09-17T11:07:43.476Z,21.27
2022-09-17T11:10:21.588Z,19.02
2022-09-17T11:13:04.489Z,17.33
2022-09-17T11:15:47.677Z,19.38
2022-09-17T11:18:36.351Z,19.05
2022-09-17T11:21:27.774Z,20.73
2022-09-17T11:24:18.429Z,15.13
2022-09-17T11:26:56.512Z,19.77
2022-09-17T11:29:44.412Z,17.98
2022-09-17T11:32:30.369Z,16.13
2022-09-17T11:35:03.132Z,18.83
2022-09-17T11:37:36.924Z,18.40
2022-09-17T11:40:13.631Z,17.98
2022-09-17T11:42:47.262Z,14.15
2022-09-17T11:45:19.275Z,15.32
2022-09-17T11:47:53.614Z,12.65
2022-09-17T11:50:25.496Z,11.80
2022-09-17T11:53:04.809Z,13.05
2022-09-17T11:55:41.040Z,10.77
2022-09-17T11:58:14.904Z,12.63
2022-09-17T12:00:49.479Z,8.52
2022-09-17T12:03:24.352Z,10.32
2022-09-17T12:05:53.819Z,11.10
2022-09-17T12:08:25.834Z,10.93
2022-09-17T12:11:02.936Z,9.55
2022-09-17T12:13:35.575Z,9.95
2022-09-17T12:16:15.906Z,10.25
2022-09-17T12:18:55.637Z,12.98
2022-09-17T12:21:29.786Z,12.95
2022-09-17T12:24:01.960Z,11.55
2022-09-17T12:26:45.171Z,10.95
2022-09-17T12:29:30.689Z,10.35
2022-09-17T12:32:11.305Z,10.60
2022-09-17T12:34:48.206Z,10.55
2022-09-17T12:37:24.289Z,10.55
2022-09-17T12:40:08.440Z,10.73
2022-09-17T12:42:53.222Z,13.15
2022-09-17T12:45:35.260Z,12.00
2022-09-17T12:48:20.150Z,14.70
2022-09-17T12:50:59.329Z,8.25
2022-09-17T12:53:31.911Z,12.35
2022-09-17T12:56:27.999Z,9.40
2022-09-17T12:59:16.195Z,11.40
2022-09-17T13:01:52.090Z,8.80
2022-09-17T13:04:59.603Z,10.43
2022-09-17T13:07:53.648Z,12.48
2022-09-17T13:10:46.506Z,12.50
2022-09-17T13:13:27.885Z,10.45
2022-09-17T13:16:05.005Z,18.95
2022-09-17T13:18:53.486Z,11.88
2022-09-17T13:21:34.525Z,12.48
2022-09-17T13:24:02.568Z,13.38
2022-09-17T13:26:36.379Z,13.73
2022-09-17T13:29:04.693Z,18.48
2022-09-17T13:31:49.567Z,16.08
2022-09-17T13:34:31.377Z,14.68
2022-09-17T13:37:00.748Z,16.38
2022-09-17T13:39:40.788Z,11.20
2022-09-17T13:42:14.982Z,13.25
2022-09-17T13:44:45.898Z,13.93
2022-09-17T13:47:20.274Z,15.00
2022-09-17T13:49:51.879Z,12.77
2022-09-17T13:52:42.186Z,14.85
2022-09-17T13:55:29.904Z,13.23
2022-09-17T13:57:57.405Z,14.10
2022-09-17T14:00:52.763Z,14.70
2022-09-17T14:03:55.519Z,14.82
2022-09-17T14:06:50.914Z,11.13
2022-09-17T14:09:46.175Z,12.30
2022-09-17T14:12:52.783Z,10.82
2022-09-17T14:15:52.391Z,10.88
2022-09-17T14:18:42.337Z,11.20
2022-09-17T14:21:25.928Z,9.95
2022-09-17T14:23:56.992Z,10.82
2022-09-17T14:26:53.546Z,10.60
2022-09-17T14:29:36.204Z,11.82
2022-09-17T14:32:07.205Z,12.50
2022-09-17T14:34:36.297Z,13.80
2022-09-17T14:37:05.139Z,10.38
2022-09-17T14:39:38.963Z,10.53
2022-09-17T14:42:13.639Z,10.80
2022-09-17T14:44:54.784Z,10.63
2022-09-17T14:47:22.141Z,9.95
2022-09-17T14:49:49.641Z,10.73
2022-09-17T14:52:29.756Z,9.85
2022-09-17T14:55:16.744Z,13.50
2022-09-17T14:57:46.037Z,10.48
2022-09-17T15:02:45.382Z,11.57
2022-09-17T15:05:23.552Z,13.13
2022-09-17T15:07:53.033Z,12.68
2022-09-17T15:10:22.290Z,15.95
2022-09-17T15:12:51.340Z,13.18
2022-09-17T15:15:22.546Z,12.82
2022-09-17T15:17:51.427Z,14.63
2022-09-17T15:20:20.999Z,10.00
2022-09-17T15:22:57.256Z,13.75
2022-09-17T15:25:29.613Z,11.75
2022-09-17T15:28:04.408Z,15.48
2022-09-17T15:30:32.025Z,12.52
2022-09-17T15:33:00.035Z,13.65
2022-09-17T15:35:28.634Z,15.30
2022-09-17T15:40:47.012Z,14.82
2022-09-17T15:43:18.797Z,15.38
2022-09-17T15:45:46.208Z,14.73
2022-09-17T15:48:33.847Z,17.17
2022-09-17T15:51:03.180Z,12.23
2022-09-17T15:53:32.781Z,13.70
2022-09-17T15:56:06.191Z,13.40
2022-09-17T15:58:38.378Z,17.98
2022-09-17T16:01:53.420Z,13.38
2022-09-17T16:04:23.565Z,14.90
2022-09-17T16:06:59.698Z,17.45
2022-09-17T16:09:48.993Z,16.17
2022-09-17T16:12:18.963Z,14.00
2022-09-17T16:14:48.350Z,17.65
2022-09-17T16:17:23.387Z,12.80
2022-09-17T16:19:50.930Z,14.52
2022-09-17T16:22:18.295Z,14.68
2022-09-17T16:24:47.093Z,13.43
2022-09-17T16:27:18.462Z,17.55
2022-09-17T16:29:46.753Z,16.65
2022-09-17T16:32:14.162Z,14.30
2022-09-17T16:34:41.535Z,15.23
2022-09-17T16:37:10.014Z,12.15
2022-09-17T16:39:37.460Z,15.25
2022-09-17T16:42:06.559Z,13.82
2022-09-17T16:44:33.924Z,16.10
2022-09-17T16:47:01.450Z,12.73
2022-09-17T16:49:28.944Z,16.40
2022-09-17T16:51:56.471Z,16.70
2022-09-17T16:54:23.971Z,13.13
2022-09-17T16:56:51.308Z,16.75
2022-09-17T16:59:20.186Z,16.35
2022-09-17T17:01:47.632Z,14.43
2022-09-17T17:04:15.060Z,14.05
2022-09-17T17:06:42.443Z,12.25
2022-09-17T17:09:09.907Z,13.20
2022-09-17T17:11:37.286Z,15.32
2022-09-17T17:14:05.442Z,13.18
2022-09-17T17:16:34.339Z,16.98
2022-09-17T17:19:01.902Z,14.70
2022-09-17T17:21:29.256Z,14.90
2022-09-17T17:23:56.656Z,13.40
2022-09-17T17:26:24.519Z,14.48
2022-09-17T17:28:52.027Z,16.60
2022-09-17T17:31:20.094Z,14.77
2022-09-17T17:33:49.010Z,14.70
2022-09-17T17:36:16.500Z,17.60
2022-09-17T17:38:43.882Z,16.60
2022-09-17T17:41:12.921Z,16.08
2022-09-17T17:43:41.135Z,15.77
2022-09-17T17:46:10.118Z,19.40
2022-09-17T17:48:37.794Z,17.40
2022-09-17T17:51:09.107Z,17.23
2022-09-17T17:53:37.160Z,15.10
2022-09-17T17:56:07.916Z,15.90
2022-09-17T17:58:35.966Z,18.25
2022-09-17T18:01:10.855Z,14.38
2022-09-17T18:03:38.328Z,20.80
2022-09-17T18:06:08.081Z,20.50
2022-09-17T18:11:03.391Z,15.10
2022-09-17T18:13:31.612Z,20.17
2022-09-17T18:16:01.857Z,19.67
2022-09-17T18:18:32.241Z,15.85
2022-09-17T18:21:01.947Z,17.08
2022-09-17T18:25:59.884Z,16.23
2022-09-17T18:28:28.527Z,16.92
2022-09-17T18:30:56.344Z,16.80
2022-09-17T18:33:25.816Z,16.30
2022-09-17T18:35:54.028Z,17.35
2022-09-17T18:38:21.956Z,17.52
2022-09-17T18:40:51.103Z,15.07
2022-09-17T18:43:18.837Z,15.80
2022-09-17T18:45:54.366Z,16.05
2022-09-17T18:48:22.098Z,18.33
2022-09-17T18:50:59.560Z,14.60
2022-09-17T18:53:27.788Z,16.38
2022-09-17T18:56:00.258Z,16.30
2022-09-17T18:58:27.770Z,16.35
2022-09-17T19:00:55.248Z,15.07
2022-09-17T19:03:22.808Z,16.90
2022-09-17T19:05:50.276Z,18.88
2022-09-17T19:08:22.036Z,16.48
2022-09-17T19:10:51.932Z,17.20
2022-09-17T19:13:21.798Z,16.10
2022-09-17T19:15:49.209Z,17.77
2022-09-17T19:18:17.220Z,16.27
2022-09-17T19:20:44.698Z,19.30
2022-09-17T19:23:12.108Z,15.73
2022-09-17T19:25:39.716Z,18.10
2022-09-17T19:28:07.904Z,17.55
2022-09-17T19:30:36.746Z,14.68
2022-09-17T19:33:04.679Z,18.27
2022-09-17T19:35:32.221Z,16.05
2022-09-17T19:37:59.663Z,17.73
2022-09-17T19:40:27.052Z,17.73
2022-09-17T19:42:54.844Z,19.58
2022-09-17T19:45:22.551Z,15.73
2022-09-17T19:47:51.598Z,17.67
2022-09-17T19:50:19.200Z,18.20
2022-09-17T19:52:46.560Z,16.20
2022-09-17T19:55:14.066Z,15.63
2022-09-17T19:57:41.441Z,18.98
2022-09-17T20:00:10.398Z,19.67
2022-09-17T20:02:37.983Z,15.37
2022-09-17T20:05:07.734Z,20.98
2022-09-17T20:07:35.179Z,17.35
2022-09-17T20:10:02.683Z,14.13
2022-09-17T20:12:30.070Z,15.73
2022-09-17T20:14:57.574Z,15.07
2022-09-17T20:17:25.141Z,16.02
2022-09-17T20:19:52.598Z,14.70
2022-09-17T20:22:21.502Z,15.73
2022-09-17T20:24:51.046Z,13.87
2022-09-17T20:29:46.216Z,14.38
2022-09-17T20:32:13.669Z,16.45
2022-09-17T20:34:41.037Z,12.00
2022-09-17T20:37:13.655Z,13.55
2022-09-17T20:39:42.794Z,13.45
2022-09-17T20:42:10.133Z,11.33
2022-09-17T20:44:37.687Z,11.05
2022-09-17T20:47:06.061Z,11.48
2022-09-17T20:49:33.473Z,11.65
2022-09-17T20:52:00.897Z,10.60
2022-09-17T20:54:28.307Z,13.35
2022-09-17T20:56:57.123Z,12.30
2022-09-17T20:59:24.538Z,9.63
2022-09-17T21:01:52.068Z,11.73
2022-09-17T21:04:20.976Z,10.05
2022-09-17T21:06:52.376Z,12.07
2022-09-17T21:09:20.152Z,10.23
2022-09-17T21:11:48.653Z,10.18
2022-09-17T21:14:17.567Z,8.57
2022-09-17T21:16:45.734Z,10.63
2022-09-17T21:19:14.544Z,10.85
2022-09-17T21:21:42.264Z,11.73
2022-09-17T21:24:09.883Z,10.75
2022-09-17T21:26:37.559Z,12.20
2022-09-17T21:29:05.117Z,11.95
2022-09-17T21:31:35.002Z,13.00
2022-09-17T21:34:04.672Z,13.75
2022-09-17T21:36:33.827Z,12.00
2022-09-17T21:39:02.722Z,13.18
2022-09-17T21:41:30.269Z,12.13
2022-09-17T21:43:58.276Z,12.40
2022-09-17T21:46:27.019Z,12.93
2022-09-17T21:48:57.179Z,12.43
2022-09-17T21:51:26.439Z,15.25
2022-09-17T21:53:55.519Z,15.02
2022-09-17T21:56:23.662Z,14.07
2022-09-17T21:58:52.888Z,14.48
2022-09-17T22:01:22.181Z,13.30
2022-09-17T22:03:49.790Z,12.65
2022-09-17T22:06:20.808Z,14.38
2022-09-17T22:08:48.988Z,14.85
2022-09-17T22:11:18.355Z,11.00
2022-09-17T22:13:51.380Z,11.63
2022-09-17T22:16:19.057Z,10.93
2022-09-17T22:18:48.242Z,11.90
2022-09-17T22:21:19.406Z,10.75
2022-09-17T22:23:47.840Z,12.52
2022-09-17T22:26:16.261Z,9.85
2022-09-17T22:28:44.155Z,9.40
2022-09-17T22:31:13.185Z,9.05
2022-09-17T22:33:42.706Z,10.02
2022-09-17T22:36:12.989Z,9.75
2022-09-17T22:38:46.711Z,11.43
2022-09-17T22:41:16.107Z,9.50
2022-09-17T22:43:43.984Z,9.95
2022-09-17T22:46:12.617Z,9.18
2022-09-17T22:48:40.294Z,13.43
2022-09-17T22:51:08.044Z,11.85
2022-09-17T22:53:36.288Z,11.38
2022-09-17T22:56:07.850Z,11.82
2022-09-17T22:58:35.293Z,10.02
2022-09-17T23:01:05.138Z,9.80
2022-09-17T23:03:33.004Z,8.50
2022-09-17T23:06:01.353Z,8.27
2022-09-17T23:08:28.880Z,9.40
2022-09-17T23:10:56.467Z,9.50
2022-09-17T23:13:25.606Z,7.68
2022-09-17T23:15:53.185Z,11.35
2022-09-17T23:18:21.143Z,10.15
2022-09-17T23:20:57.008Z,9.32
2022-09-17T23:23:24.764Z,8.95
2022-09-17T23:25:52.218Z,8.90
2022-09-17T23:28:19.730Z,9.13
2022-09-17T23:30:48.729Z,11.25
2022-09-17T23:33:16.110Z,10.43
2022-09-17T23:35:44.064Z,13.88
2022-09-17T23:38:11.510Z,9.60
2022-09-17T23:40:39.039Z,9.05
2022-09-17T23:43:06.712Z,10.02
2022-09-17T23:45:34.374Z,8.88
2022-09-17T23:48:03.319Z,8.50
2022-09-17T23:50:30.663Z,9.27
2022-09-17T23:52:58.466Z,8.93
2022-09-17T23:55:26.427Z,8.55
2022-09-17T23:57:53.844Z,8.13
